sensor_id;sensor_type;location;lat;lon;timestamp;P1;durP1;ratioP1;P2;durP2;ratioP2
60292;SDS011;52402;52.670;6.750;2023-02-28T00:02:14;11.20;;;6.63;;
60292;SDS011;52402;52.670;6.750;2023-02-28T00:04:42;13.75;;;7.60;;
60292;SDS011;52402;52.670;6.750;2023-02-28T00:07:08;10.82;;;7.00;;
60292;SDS011;52402;52.670;6.750;2023-02-28T00:09:34;9.05;;;6.40;;
60292;SDS011;52402;52.670;6.750;2023-02-28T00:11:59;9.27;;;7.13;;
60292;SDS011;52402;52.670;6.750;2023-02-28T00:14:29;11.48;;;7.55;;
60292;SDS011;52402;52.670;6.750;2023-02-28T00:16:55;12.52;;;7.38;;
60292;SDS011;52402;52.670;6.750;2023-02-28T00:19:21;11.27;;;7.78;;
60292;SDS011;52402;52.670;6.750;2023-02-28T00:21:46;9.68;;;6.30;;
60292;SDS011;52402;52.670;6.750;2023-02-28T00:24:12;11.60;;;7.50;;
60292;SDS011;52402;52.670;6.750;2023-02-28T00:26:37;11.63;;;6.90;;
60292;SDS011;52402;52.670;6.750;2023-02-28T00:29:03;11.25;;;6.90;;
60292;SDS011;52402;52.670;6.750;2023-02-28T00:31:29;10.45;;;7.60;;
60292;SDS011;52402;52.670;6.750;2023-02-28T00:33:54;11.23;;;7.20;;
60292;SDS011;52402;52.670;6.750;2023-02-28T00:36:20;11.77;;;7.97;;
60292;SDS011;52402;52.670;6.750;2023-02-28T00:38:45;12.27;;;7.40;;
60292;SDS011;52402;52.670;6.750;2023-02-28T00:41:11;10.93;;;7.28;;
60292;SDS011;52402;52.670;6.750;2023-02-28T00:43:37;9.77;;;6.85;;
60292;SDS011;52402;52.670;6.750;2023-02-28T00:46:04;11.05;;;6.97;;
60292;SDS011;52402;52.670;6.750;2023-02-28T00:48:30;10.88;;;7.25;;
60292;SDS011;52402;52.670;6.750;2023-02-28T00:50:55;9.45;;;7.20;;
60292;SDS011;52402;52.670;6.750;2023-02-28T00:53:21;12.27;;;7.22;;
60292;SDS011;52402;52.670;6.750;2023-02-28T00:55:47;11.55;;;7.32;;
60292;SDS011;52402;52.670;6.750;2023-02-28T00:58:13;9.80;;;7.05;;
60292;SDS011;52402;52.670;6.750;2023-02-28T01:00:39;9.55;;;6.40;;
60292;SDS011;52402;52.670;6.750;2023-02-28T01:03:04;10.52;;;7.28;;
60292;SDS011;52402;52.670;6.750;2023-02-28T01:05:30;11.02;;;7.80;;
60292;SDS011;52402;52.670;6.750;2023-02-28T01:07:56;9.00;;;6.90;;
60292;SDS011;52402;52.670;6.750;2023-02-28T01:10:21;12.65;;;6.75;;
60292;SDS011;52402;52.670;6.750;2023-02-28T01:12:47;11.35;;;7.38;;
60292;SDS011;52402;52.670;6.750;2023-02-28T01:15:12;9.75;;;6.97;;
60292;SDS011;52402;52.670;6.750;2023-02-28T01:17:38;12.18;;;7.10;;
60292;SDS011;52402;52.670;6.750;2023-02-28T01:20:04;8.80;;;6.32;;
60292;SDS011;52402;52.670;6.750;2023-02-28T01:22:30;11.45;;;8.20;;
60292;SDS011;52402;52.670;6.750;2023-02-28T01:24:56;9.35;;;6.53;;
60292;SDS011;52402;52.670;6.750;2023-02-28T01:27:21;11.10;;;6.40;;
60292;SDS011;52402;52.670;6.750;2023-02-28T01:29:47;10.40;;;7.18;;
60292;SDS011;52402;52.670;6.750;2023-02-28T01:32:12;11.18;;;7.50;;
60292;SDS011;52402;52.670;6.750;2023-02-28T01:34:38;13.27;;;8.95;;
60292;SDS011;52402;52.670;6.750;2023-02-28T01:37:04;12.00;;;8.82;;
60292;SDS011;52402;52.670;6.750;2023-02-28T01:39:29;12.43;;;8.43;;
60292;SDS011;52402;52.670;6.750;2023-02-28T01:41:55;12.15;;;8.68;;
60292;SDS011;52402;52.670;6.750;2023-02-28T01:47:23;11.57;;;8.30;;
60292;SDS011;52402;52.670;6.750;2023-02-28T01:49:53;15.50;;;9.30;;
60292;SDS011;52402;52.670;6.750;2023-02-28T01:52:20;13.35;;;8.65;;
60292;SDS011;52402;52.670;6.750;2023-02-28T01:54:51;11.07;;;7.78;;
60292;SDS011;52402;52.670;6.750;2023-02-28T01:57:20;10.65;;;7.90;;
60292;SDS011;52402;52.670;6.750;2023-02-28T02:02:21;11.48;;;7.68;;
60292;SDS011;52402;52.670;6.750;2023-02-28T02:04:53;11.82;;;8.13;;
60292;SDS011;52402;52.670;6.750;2023-02-28T02:07:26;11.43;;;7.80;;
60292;SDS011;52402;52.670;6.750;2023-02-28T02:10:01;14.68;;;9.07;;
60292;SDS011;52402;52.670;6.750;2023-02-28T02:18:01;15.02;;;9.90;;
60292;SDS011;52402;52.670;6.750;2023-02-28T02:26:23;11.43;;;9.77;;
60292;SDS011;52402;52.670;6.750;2023-02-28T02:34:56;14.15;;;10.38;;
60292;SDS011;52402;52.670;6.750;2023-02-28T02:40:18;13.23;;;9.90;;
60292;SDS011;52402;52.670;6.750;2023-02-28T02:45:44;12.82;;;10.07;;
60292;SDS011;52402;52.670;6.750;2023-02-28T02:48:20;13.25;;;9.88;;
60292;SDS011;52402;52.670;6.750;2023-02-28T02:50:51;14.10;;;10.40;;
60292;SDS011;52402;52.670;6.750;2023-02-28T02:53:21;13.30;;;9.80;;
60292;SDS011;52402;52.670;6.750;2023-02-28T02:55:51;15.90;;;10.52;;
60292;SDS011;52402;52.670;6.750;2023-02-28T02:58:20;13.13;;;10.20;;
60292;SDS011;52402;52.670;6.750;2023-02-28T03:00:51;14.10;;;9.95;;
60292;SDS011;52402;52.670;6.750;2023-02-28T03:03:19;14.03;;;10.90;;
60292;SDS011;52402;52.670;6.750;2023-02-28T03:05:53;14.52;;;11.10;;
60292;SDS011;52402;52.670;6.750;2023-02-28T03:08:20;13.25;;;10.43;;
60292;SDS011;52402;52.670;6.750;2023-02-28T03:10:48;14.23;;;11.10;;
60292;SDS011;52402;52.670;6.750;2023-02-28T03:24:32;15.38;;;11.15;;
60292;SDS011;52402;52.670;6.750;2023-02-28T03:27:07;12.52;;;9.85;;
60292;SDS011;52402;52.670;6.750;2023-02-28T03:29:46;11.85;;;10.07;;
60292;SDS011;52402;52.670;6.750;2023-02-28T03:32:18;13.48;;;10.77;;
60292;SDS011;52402;52.670;6.750;2023-02-28T03:34:54;16.73;;;11.70;;
60292;SDS011;52402;52.670;6.750;2023-02-28T03:37:46;13.95;;;10.50;;
60292;SDS011;52402;52.670;6.750;2023-02-28T03:40:21;12.13;;;10.35;;
60292;SDS011;52402;52.670;6.750;2023-02-28T03:42:51;14.07;;;11.10;;
60292;SDS011;52402;52.670;6.750;2023-02-28T03:45:24;16.38;;;11.93;;
60292;SDS011;52402;52.670;6.750;2023-02-28T03:48:55;13.73;;;10.32;;
60292;SDS011;52402;52.670;6.750;2023-02-28T03:51:03;14.88;;;11.65;;
60292;SDS011;52402;52.670;6.750;2023-02-28T03:53:34;13.35;;;10.63;;
60292;SDS011;52402;52.670;6.750;2023-02-28T03:56:05;14.13;;;10.98;;
60292;SDS011;52402;52.670;6.750;2023-02-28T04:03:58;15.25;;;12.75;;
60292;SDS011;52402;52.670;6.750;2023-02-28T04:06:23;18.05;;;16.15;;
60292;SDS011;52402;52.670;6.750;2023-02-28T04:08:50;16.80;;;12.93;;
60292;SDS011;52402;52.670;6.750;2023-02-28T04:11:18;14.27;;;12.30;;
60292;SDS011;52402;52.670;6.750;2023-02-28T04:14:03;14.02;;;11.38;;
60292;SDS011;52402;52.670;6.750;2023-02-28T04:16:29;15.02;;;11.90;;
60292;SDS011;52402;52.670;6.750;2023-02-28T04:18:56;14.35;;;12.35;;
60292;SDS011;52402;52.670;6.750;2023-02-28T04:21:32;13.38;;;11.25;;
60292;SDS011;52402;52.670;6.750;2023-02-28T04:24:06;13.07;;;11.15;;
60292;SDS011;52402;52.670;6.750;2023-02-28T04:26:35;12.93;;;11.35;;
60292;SDS011;52402;52.670;6.750;2023-02-28T04:29:06;12.55;;;10.80;;
60292;SDS011;52402;52.670;6.750;2023-02-28T04:31:33;12.85;;;11.10;;
60292;SDS011;52402;52.670;6.750;2023-02-28T04:33:59;11.60;;;10.40;;
60292;SDS011;52402;52.670;6.750;2023-02-28T04:36:25;13.15;;;11.00;;
60292;SDS011;52402;52.670;6.750;2023-02-28T04:38:51;11.88;;;10.25;;
60292;SDS011;52402;52.670;6.750;2023-02-28T04:41:16;13.38;;;10.50;;
60292;SDS011;52402;52.670;6.750;2023-02-28T04:43:43;12.50;;;10.80;;
60292;SDS011;52402;52.670;6.750;2023-02-28T04:46:09;13.35;;;10.23;;
60292;SDS011;52402;52.670;6.750;2023-02-28T04:48:36;11.70;;;9.18;;
60292;SDS011;52402;52.670;6.750;2023-02-28T04:51:04;11.48;;;8.75;;
60292;SDS011;52402;52.670;6.750;2023-02-28T04:53:35;10.40;;;8.30;;
60292;SDS011;52402;52.670;6.750;2023-02-28T04:56:02;11.43;;;8.48;;
60292;SDS011;52402;52.670;6.750;2023-02-28T04:58:28;12.18;;;9.05;;
60292;SDS011;52402;52.670;6.750;2023-02-28T05:00:56;12.23;;;9.57;;
60292;SDS011;52402;52.670;6.750;2023-02-28T05:03:40;11.27;;;8.02;;
60292;SDS011;52402;52.670;6.750;2023-02-28T05:06:07;10.43;;;9.05;;
60292;SDS011;52402;52.670;6.750;2023-02-28T05:08:33;11.35;;;8.50;;
60292;SDS011;52402;52.670;6.750;2023-02-28T05:10:59;10.80;;;8.20;;
60292;SDS011;52402;52.670;6.750;2023-02-28T05:13:28;11.25;;;8.95;;
60292;SDS011;52402;52.670;6.750;2023-02-28T05:15:54;12.40;;;9.23;;
60292;SDS011;52402;52.670;6.750;2023-02-28T05:18:20;11.02;;;8.43;;
60292;SDS011;52402;52.670;6.750;2023-02-28T05:20:45;11.13;;;9.13;;
60292;SDS011;52402;52.670;6.750;2023-02-28T05:23:12;9.75;;;8.60;;
60292;SDS011;52402;52.670;6.750;2023-02-28T05:25:39;11.15;;;8.68;;
60292;SDS011;52402;52.670;6.750;2023-02-28T05:28:05;11.02;;;8.63;;
60292;SDS011;52402;52.670;6.750;2023-02-28T05:30:31;10.98;;;7.75;;
60292;SDS011;52402;52.670;6.750;2023-02-28T05:32:58;9.55;;;8.25;;
60292;SDS011;52402;52.670;6.750;2023-02-28T05:35:24;11.05;;;8.45;;
60292;SDS011;52402;52.670;6.750;2023-02-28T05:37:50;11.27;;;9.00;;
60292;SDS011;52402;52.670;6.750;2023-02-28T05:40:16;11.38;;;9.07;;
60292;SDS011;52402;52.670;6.750;2023-02-28T05:42:44;10.80;;;9.50;;
60292;SDS011;52402;52.670;6.750;2023-02-28T05:45:10;11.90;;;9.40;;
60292;SDS011;52402;52.670;6.750;2023-02-28T05:47:35;10.85;;;9.45;;
60292;SDS011;52402;52.670;6.750;2023-02-28T05:50:01;10.73;;;9.40;;
60292;SDS011;52402;52.670;6.750;2023-02-28T05:52:28;12.13;;;10.07;;
60292;SDS011;52402;52.670;6.750;2023-02-28T05:54:55;12.10;;;9.70;;
60292;SDS011;52402;52.670;6.750;2023-02-28T05:57:21;11.68;;;9.82;;
60292;SDS011;52402;52.670;6.750;2023-02-28T05:59:47;12.70;;;10.68;;
60292;SDS011;52402;52.670;6.750;2023-02-28T06:02:13;12.18;;;10.52;;
60292;SDS011;52402;52.670;6.750;2023-02-28T06:04:40;12.35;;;10.65;;
60292;SDS011;52402;52.670;6.750;2023-02-28T06:07:06;12.43;;;10.60;;
60292;SDS011;52402;52.670;6.750;2023-02-28T06:09:32;10.38;;;9.38;;
60292;SDS011;52402;52.670;6.750;2023-02-28T06:11:59;11.57;;;10.38;;
60292;SDS011;52402;52.670;6.750;2023-02-28T06:14:25;11.63;;;10.43;;
60292;SDS011;52402;52.670;6.750;2023-02-28T06:16:51;12.55;;;10.00;;
60292;SDS011;52402;52.670;6.750;2023-02-28T06:19:17;13.05;;;10.65;;
60292;SDS011;52402;52.670;6.750;2023-02-28T06:21:43;13.38;;;10.77;;
60292;SDS011;52402;52.670;6.750;2023-02-28T06:24:08;12.25;;;10.60;;
60292;SDS011;52402;52.670;6.750;2023-02-28T06:26:35;12.43;;;10.55;;
60292;SDS011;52402;52.670;6.750;2023-02-28T06:29:00;11.48;;;10.30;;
60292;SDS011;52402;52.670;6.750;2023-02-28T06:31:26;12.05;;;10.80;;
60292;SDS011;52402;52.670;6.750;2023-02-28T06:33:54;12.75;;;11.45;;
60292;SDS011;52402;52.670;6.750;2023-02-28T06:36:20;12.68;;;11.40;;
60292;SDS011;52402;52.670;6.750;2023-02-28T06:38:46;12.77;;;11.30;;
60292;SDS011;52402;52.670;6.750;2023-02-28T06:41:16;12.38;;;10.77;;
60292;SDS011;52402;52.670;6.750;2023-02-28T06:43:42;13.35;;;11.82;;
60292;SDS011;52402;52.670;6.750;2023-02-28T06:46:08;13.38;;;11.98;;
60292;SDS011;52402;52.670;6.750;2023-02-28T06:48:38;12.68;;;11.02;;
60292;SDS011;52402;52.670;6.750;2023-02-28T06:51:07;13.02;;;11.02;;
60292;SDS011;52402;52.670;6.750;2023-02-28T06:53:39;14.35;;;11.90;;
60292;SDS011;52402;52.670;6.750;2023-02-28T06:56:06;12.70;;;10.82;;
60292;SDS011;52402;52.670;6.750;2023-02-28T06:58:34;14.13;;;11.60;;
60292;SDS011;52402;52.670;6.750;2023-02-28T07:01:00;13.40;;;12.00;;
60292;SDS011;52402;52.670;6.750;2023-02-28T07:03:26;10.88;;;6.80;;
60292;SDS011;52402;52.670;6.750;2023-02-28T07:05:51;12.50;;;11.30;;
60292;SDS011;52402;52.670;6.750;2023-02-28T07:08:17;12.73;;;11.20;;
60292;SDS011;52402;52.670;6.750;2023-02-28T07:10:43;12.93;;;11.65;;
60292;SDS011;52402;52.670;6.750;2023-02-28T07:13:09;13.20;;;11.93;;
60292;SDS011;52402;52.670;6.750;2023-02-28T07:15:35;11.20;;;9.98;;
60292;SDS011;52402;52.670;6.750;2023-02-28T07:18:02;12.88;;;11.13;;
60292;SDS011;52402;52.670;6.750;2023-02-28T07:20:28;12.65;;;10.07;;
60292;SDS011;52402;52.670;6.750;2023-02-28T07:22:53;12.10;;;10.43;;
60292;SDS011;52402;52.670;6.750;2023-02-28T07:25:23;11.57;;;10.02;;
60292;SDS011;52402;52.670;6.750;2023-02-28T07:27:49;12.55;;;10.02;;
60292;SDS011;52402;52.670;6.750;2023-02-28T07:30:15;12.27;;;9.63;;
60292;SDS011;52402;52.670;6.750;2023-02-28T07:32:41;10.75;;;9.50;;
60292;SDS011;52402;52.670;6.750;2023-02-28T07:35:07;12.02;;;9.90;;
60292;SDS011;52402;52.670;6.750;2023-02-28T07:37:32;11.57;;;10.27;;
60292;SDS011;52402;52.670;6.750;2023-02-28T07:40:05;13.80;;;10.52;;
60292;SDS011;52402;52.670;6.750;2023-02-28T07:42:33;11.77;;;10.38;;
60292;SDS011;52402;52.670;6.750;2023-02-28T07:45:00;12.27;;;10.98;;
60292;SDS011;52402;52.670;6.750;2023-02-28T07:47:26;14.10;;;11.88;;
60292;SDS011;52402;52.670;6.750;2023-02-28T07:49:51;12.32;;;10.52;;
60292;SDS011;52402;52.670;6.750;2023-02-28T07:52:17;13.13;;;10.60;;
60292;SDS011;52402;52.670;6.750;2023-02-28T07:54:43;12.18;;;10.88;;
60292;SDS011;52402;52.670;6.750;2023-02-28T07:57:08;13.32;;;12.02;;
60292;SDS011;52402;52.670;6.750;2023-02-28T07:59:34;13.63;;;12.27;;
60292;SDS011;52402;52.670;6.750;2023-02-28T08:02:00;15.43;;;13.43;;
60292;SDS011;52402;52.670;6.750;2023-02-28T08:04:25;14.43;;;12.98;;
60292;SDS011;52402;52.670;6.750;2023-02-28T08:06:51;16.05;;;13.48;;
60292;SDS011;52402;52.670;6.750;2023-02-28T08:09:21;14.65;;;13.15;;
60292;SDS011;52402;52.670;6.750;2023-02-28T08:11:46;14.07;;;12.30;;
60292;SDS011;52402;52.670;6.750;2023-02-28T08:14:12;14.20;;;12.48;;
60292;SDS011;52402;52.670;6.750;2023-02-28T08:16:38;14.48;;;12.98;;
60292;SDS011;52402;52.670;6.750;2023-02-28T08:19:04;14.70;;;13.10;;
60292;SDS011;52402;52.670;6.750;2023-02-28T08:21:29;14.63;;;12.88;;
60292;SDS011;52402;52.670;6.750;2023-02-28T08:23:55;13.82;;;12.52;;
60292;SDS011;52402;52.670;6.750;2023-02-28T08:26:22;15.80;;;12.75;;
60292;SDS011;52402;52.670;6.750;2023-02-28T08:28:47;14.10;;;12.65;;
60292;SDS011;52402;52.670;6.750;2023-02-28T08:31:14;14.13;;;12.32;;
60292;SDS011;52402;52.670;6.750;2023-02-28T08:33:41;14.05;;;11.85;;
60292;SDS011;52402;52.670;6.750;2023-02-28T08:36:09;15.27;;;12.25;;
60292;SDS011;52402;52.670;6.750;2023-02-28T08:38:36;14.88;;;12.20;;
60292;SDS011;52402;52.670;6.750;2023-02-28T08:41:04;13.45;;;11.85;;
60292;SDS011;52402;52.670;6.750;2023-02-28T08:43:32;14.18;;;12.07;;
60292;SDS011;52402;52.670;6.750;2023-02-28T08:45:58;14.40;;;11.70;;
60292;SDS011;52402;52.670;6.750;2023-02-28T08:48:27;12.93;;;11.50;;
60292;SDS011;52402;52.670;6.750;2023-02-28T08:50:58;11.57;;;8.52;;
60292;SDS011;52402;52.670;6.750;2023-02-28T08:53:26;9.25;;;7.97;;
60292;SDS011;52402;52.670;6.750;2023-02-28T08:58:47;8.70;;;6.15;;
60292;SDS011;52402;52.670;6.750;2023-02-28T09:01:15;9.75;;;7.07;;
60292;SDS011;52402;52.670;6.750;2023-02-28T09:03:41;8.95;;;5.38;;
60292;SDS011;52402;52.670;6.750;2023-02-28T09:06:08;10.30;;;6.82;;
60292;SDS011;52402;52.670;6.750;2023-02-28T09:08:34;9.73;;;6.38;;
60292;SDS011;52402;52.670;6.750;2023-02-28T09:11:00;8.75;;;5.80;;
60292;SDS011;52402;52.670;6.750;2023-02-28T09:13:27;8.07;;;5.40;;
60292;SDS011;52402;52.670;6.750;2023-02-28T09:15:53;6.57;;;4.80;;
60292;SDS011;52402;52.670;6.750;2023-02-28T09:18:22;6.68;;;4.32;;
60292;SDS011;52402;52.670;6.750;2023-02-28T09:20:47;6.82;;;3.78;;
60292;SDS011;52402;52.670;6.750;2023-02-28T09:23:13;4.20;;;2.75;;
60292;SDS011;52402;52.670;6.750;2023-02-28T09:25:45;6.57;;;3.50;;
60292;SDS011;52402;52.670;6.750;2023-02-28T09:28:18;6.15;;;3.10;;
60292;SDS011;52402;52.670;6.750;2023-02-28T09:30:45;6.32;;;3.20;;
60292;SDS011;52402;52.670;6.750;2023-02-28T09:33:13;5.50;;;3.00;;
60292;SDS011;52402;52.670;6.750;2023-02-28T09:35:39;6.82;;;2.92;;
60292;SDS011;52402;52.670;6.750;2023-02-28T09:38:05;5.60;;;3.17;;
60292;SDS011;52402;52.670;6.750;2023-02-28T09:40:34;7.03;;;3.00;;
60292;SDS011;52402;52.670;6.750;2023-02-28T09:43:34;5.07;;;2.90;;
60292;SDS011;52402;52.670;6.750;2023-02-28T09:48:51;5.63;;;3.30;;
60292;SDS011;52402;52.670;6.750;2023-02-28T09:53:49;5.40;;;3.28;;
60292;SDS011;52402;52.670;6.750;2023-02-28T09:56:22;5.15;;;3.05;;
60292;SDS011;52402;52.670;6.750;2023-02-28T10:04:45;5.35;;;3.15;;
60292;SDS011;52402;52.670;6.750;2023-02-28T10:07:20;5.53;;;2.80;;
60292;SDS011;52402;52.670;6.750;2023-02-28T10:09:53;4.85;;;2.90;;
60292;SDS011;52402;52.670;6.750;2023-02-28T10:12:21;5.78;;;3.17;;
60292;SDS011;52402;52.670;6.750;2023-02-28T10:14:49;5.43;;;3.03;;
60292;SDS011;52402;52.670;6.750;2023-02-28T10:17:19;4.35;;;2.70;;
60292;SDS011;52402;52.670;6.750;2023-02-28T10:22:38;4.60;;;2.80;;
60292;SDS011;52402;52.670;6.750;2023-02-28T10:25:21;4.55;;;2.70;;
60292;SDS011;52402;52.670;6.750;2023-02-28T10:27:57;5.35;;;3.13;;
60292;SDS011;52402;52.670;6.750;2023-02-28T10:30:36;5.07;;;2.85;;
60292;SDS011;52402;52.670;6.750;2023-02-28T10:33:04;5.05;;;2.70;;
60292;SDS011;52402;52.670;6.750;2023-02-28T10:35:29;3.72;;;2.50;;
60292;SDS011;52402;52.670;6.750;2023-02-28T10:37:56;5.47;;;2.70;;
60292;SDS011;52402;52.670;6.750;2023-02-28T10:43:05;4.68;;;2.50;;
60292;SDS011;52402;52.670;6.750;2023-02-28T10:45:52;4.63;;;2.47;;
60292;SDS011;52402;52.670;6.750;2023-02-28T11:01:20;4.88;;;2.50;;
60292;SDS011;52402;52.670;6.750;2023-02-28T11:03:58;5.25;;;2.38;;
60292;SDS011;52402;52.670;6.750;2023-02-28T11:06:32;5.40;;;2.90;;
60292;SDS011;52402;52.670;6.750;2023-02-28T11:09:00;4.32;;;2.50;;
60292;SDS011;52402;52.670;6.750;2023-02-28T11:11:29;4.23;;;2.47;;
60292;SDS011;52402;52.670;6.750;2023-02-28T11:13:57;4.90;;;2.50;;
60292;SDS011;52402;52.670;6.750;2023-02-28T11:16:35;4.80;;;2.70;;
60292;SDS011;52402;52.670;6.750;2023-02-28T11:19:03;4.32;;;2.40;;
60292;SDS011;52402;52.670;6.750;2023-02-28T11:21:35;5.97;;;2.70;;
60292;SDS011;52402;52.670;6.750;2023-02-28T11:24:26;4.68;;;2.50;;
60292;SDS011;52402;52.670;6.750;2023-02-28T11:26:56;4.70;;;2.72;;
60292;SDS011;52402;52.670;6.750;2023-02-28T11:29:23;4.70;;;2.70;;
60292;SDS011;52402;52.670;6.750;2023-02-28T11:32:11;4.63;;;2.90;;
60292;SDS011;52402;52.670;6.750;2023-02-28T11:34:40;4.63;;;2.70;;
60292;SDS011;52402;52.670;6.750;2023-02-28T11:37:16;4.07;;;2.50;;
60292;SDS011;52402;52.670;6.750;2023-02-28T11:39:44;3.78;;;2.45;;
60292;SDS011;52402;52.670;6.750;2023-02-28T11:48:14;6.72;;;3.10;;
60292;SDS011;52402;52.670;6.750;2023-02-28T11:51:06;5.80;;;2.88;;
60292;SDS011;52402;52.670;6.750;2023-02-28T11:56:35;4.78;;;2.83;;
60292;SDS011;52402;52.670;6.750;2023-02-28T12:01:58;4.95;;;2.90;;
60292;SDS011;52402;52.670;6.750;2023-02-28T12:07:45;5.68;;;3.10;;
60292;SDS011;52402;52.670;6.750;2023-02-28T12:10:28;4.90;;;2.92;;
60292;SDS011;52402;52.670;6.750;2023-02-28T12:15:53;5.65;;;3.10;;
60292;SDS011;52402;52.670;6.750;2023-02-28T12:24:15;4.95;;;3.20;;
60292;SDS011;52402;52.670;6.750;2023-02-28T12:26:59;5.97;;;3.53;;
60292;SDS011;52402;52.670;6.750;2023-02-28T12:29:29;5.67;;;3.27;;
60292;SDS011;52402;52.670;6.750;2023-02-28T12:32:01;6.25;;;3.25;;
60292;SDS011;52402;52.670;6.750;2023-02-28T12:34:39;4.40;;;3.17;;
60292;SDS011;52402;52.670;6.750;2023-02-28T12:37:44;5.05;;;3.20;;
60292;SDS011;52402;52.670;6.750;2023-02-28T12:40:22;5.68;;;3.30;;
60292;SDS011;52402;52.670;6.750;2023-02-28T12:42:58;4.85;;;3.40;;
60292;SDS011;52402;52.670;6.750;2023-02-28T12:48:33;5.68;;;3.25;;
60292;SDS011;52402;52.670;6.750;2023-02-28T12:51:05;5.32;;;3.30;;
60292;SDS011;52402;52.670;6.750;2023-02-28T12:56:16;6.25;;;3.35;;
60292;SDS011;52402;52.670;6.750;2023-02-28T12:58:56;4.88;;;3.30;;
60292;SDS011;52402;52.670;6.750;2023-02-28T13:01:42;5.07;;;3.22;;
60292;SDS011;52402;52.670;6.750;2023-02-28T13:10:14;4.70;;;2.90;;
60292;SDS011;52402;52.670;6.750;2023-02-28T13:12:48;4.85;;;3.30;;
60292;SDS011;52402;52.670;6.750;2023-02-28T13:15:25;5.63;;;3.20;;
60292;SDS011;52402;52.670;6.750;2023-02-28T13:17:54;5.82;;;3.33;;
60292;SDS011;52402;52.670;6.750;2023-02-28T13:20:33;5.37;;;3.20;;
60292;SDS011;52402;52.670;6.750;2023-02-28T13:23:01;5.57;;;3.30;;
60292;SDS011;52402;52.670;6.750;2023-02-28T13:27:58;5.38;;;3.20;;
60292;SDS011;52402;52.670;6.750;2023-02-28T13:38:48;5.85;;;3.70;;
60292;SDS011;52402;52.670;6.750;2023-02-28T13:41:43;5.68;;;3.78;;
60292;SDS011;52402;52.670;6.750;2023-02-28T13:51:51;5.90;;;3.92;;
60292;SDS011;52402;52.670;6.750;2023-02-28T13:54:24;5.63;;;3.58;;
60292;SDS011;52402;52.670;6.750;2023-02-28T14:00:52;5.57;;;3.90;;
60292;SDS011;52402;52.670;6.750;2023-02-28T14:08:33;6.07;;;3.85;;
60292;SDS011;52402;52.670;6.750;2023-02-28T14:11:04;5.47;;;3.53;;
60292;SDS011;52402;52.670;6.750;2023-02-28T14:16:12;5.07;;;3.08;;
60292;SDS011;52402;52.670;6.750;2023-02-28T14:18:41;4.83;;;3.10;;
60292;SDS011;52402;52.670;6.750;2023-02-28T14:26:55;5.28;;;2.90;;
60292;SDS011;52402;52.670;6.750;2023-02-28T14:32:35;5.03;;;3.15;;
60292;SDS011;52402;52.670;6.750;2023-02-28T14:38:20;4.78;;;2.92;;
60292;SDS011;52402;52.670;6.750;2023-02-28T14:40:49;5.00;;;2.77;;
60292;SDS011;52402;52.670;6.750;2023-02-28T14:43:35;4.68;;;2.92;;
60292;SDS011;52402;52.670;6.750;2023-02-28T14:46:02;5.53;;;3.45;;
60292;SDS011;52402;52.670;6.750;2023-02-28T14:48:30;4.95;;;2.92;;
60292;SDS011;52402;52.670;6.750;2023-02-28T14:50:59;4.97;;;3.25;;
60292;SDS011;52402;52.670;6.750;2023-02-28T14:53:28;6.05;;;2.83;;
60292;SDS011;52402;52.670;6.750;2023-02-28T14:55:55;4.63;;;3.03;;
60292;SDS011;52402;52.670;6.750;2023-02-28T14:58:28;4.78;;;2.97;;
60292;SDS011;52402;52.670;6.750;2023-02-28T15:00:58;5.65;;;3.35;;
60292;SDS011;52402;52.670;6.750;2023-02-28T15:03:32;4.88;;;2.97;;
60292;SDS011;52402;52.670;6.750;2023-02-28T15:06:03;4.85;;;2.97;;
60292;SDS011;52402;52.670;6.750;2023-02-28T15:08:30;5.65;;;3.10;;
60292;SDS011;52402;52.670;6.750;2023-02-28T15:13:44;5.25;;;3.20;;
60292;SDS011;52402;52.670;6.750;2023-02-28T15:16:22;5.43;;;3.30;;
60292;SDS011;52402;52.670;6.750;2023-02-28T15:18:57;4.70;;;3.05;;
60292;SDS011;52402;52.670;6.750;2023-02-28T15:21:32;6.50;;;3.60;;
60292;SDS011;52402;52.670;6.750;2023-02-28T15:24:03;5.07;;;3.28;;
60292;SDS011;52402;52.670;6.750;2023-02-28T15:26:33;5.00;;;3.13;;
60292;SDS011;52402;52.670;6.750;2023-02-28T15:29:16;5.38;;;3.38;;
60292;SDS011;52402;52.670;6.750;2023-02-28T15:31:47;5.60;;;3.10;;
60292;SDS011;52402;52.670;6.750;2023-02-28T15:34:39;5.28;;;3.20;;
60292;SDS011;52402;52.670;6.750;2023-02-28T15:37:24;5.55;;;3.30;;
60292;SDS011;52402;52.670;6.750;2023-02-28T15:39:56;5.30;;;3.13;;
60292;SDS011;52402;52.670;6.750;2023-02-28T15:42:29;5.32;;;3.10;;
60292;SDS011;52402;52.670;6.750;2023-02-28T15:44:56;5.18;;;2.95;;
60292;SDS011;52402;52.670;6.750;2023-02-28T15:47:23;5.75;;;3.25;;
60292;SDS011;52402;52.670;6.750;2023-02-28T15:49:55;5.20;;;3.50;;
60292;SDS011;52402;52.670;6.750;2023-02-28T15:52:29;5.80;;;3.78;;
60292;SDS011;52402;52.670;6.750;2023-02-28T15:54:56;5.60;;;3.47;;
60292;SDS011;52402;52.670;6.750;2023-02-28T15:57:27;5.65;;;3.53;;
60292;SDS011;52402;52.670;6.750;2023-02-28T15:59:55;5.60;;;3.38;;
60292;SDS011;52402;52.670;6.750;2023-02-28T16:02:34;5.18;;;3.33;;
60292;SDS011;52402;52.670;6.750;2023-02-28T16:07:36;5.53;;;3.17;;
60292;SDS011;52402;52.670;6.750;2023-02-28T16:10:02;5.78;;;3.40;;
60292;SDS011;52402;52.670;6.750;2023-02-28T16:12:30;5.95;;;3.55;;
60292;SDS011;52402;52.670;6.750;2023-02-28T16:14:58;5.45;;;3.70;;
60292;SDS011;52402;52.670;6.750;2023-02-28T16:19:55;5.38;;;3.42;;
60292;SDS011;52402;52.670;6.750;2023-02-28T16:22:21;5.80;;;3.45;;
60292;SDS011;52402;52.670;6.750;2023-02-28T16:24:47;7.00;;;3.80;;
60292;SDS011;52402;52.670;6.750;2023-02-28T16:27:15;7.07;;;3.63;;
60292;SDS011;52402;52.670;6.750;2023-02-28T16:29:47;5.70;;;3.63;;
60292;SDS011;52402;52.670;6.750;2023-02-28T16:32:14;5.63;;;3.70;;
60292;SDS011;52402;52.670;6.750;2023-02-28T16:34:40;5.85;;;3.30;;
60292;SDS011;52402;52.670;6.750;2023-02-28T16:37:10;6.43;;;3.80;;
60292;SDS011;52402;52.670;6.750;2023-02-28T16:39:38;5.10;;;3.63;;
60292;SDS011;52402;52.670;6.750;2023-02-28T16:42:04;4.72;;;3.45;;
60292;SDS011;52402;52.670;6.750;2023-02-28T16:44:31;5.43;;;3.90;;
60292;SDS011;52402;52.670;6.750;2023-02-28T16:47:02;5.63;;;3.65;;
60292;SDS011;52402;52.670;6.750;2023-02-28T16:49:28;6.85;;;4.20;;
60292;SDS011;52402;52.670;6.750;2023-02-28T16:51:54;6.85;;;4.07;;
60292;SDS011;52402;52.670;6.750;2023-02-28T16:54:20;5.50;;;3.95;;
60292;SDS011;52402;52.670;6.750;2023-02-28T16:56:46;6.75;;;3.88;;
60292;SDS011;52402;52.670;6.750;2023-02-28T16:59:21;7.13;;;4.95;;
60292;SDS011;52402;52.670;6.750;2023-02-28T17:01:49;8.68;;;5.57;;
60292;SDS011;52402;52.670;6.750;2023-02-28T17:04:15;9.15;;;5.25;;
60292;SDS011;52402;52.670;6.750;2023-02-28T17:06:41;8.60;;;6.15;;
60292;SDS011;52402;52.670;6.750;2023-02-28T17:09:16;9.48;;;6.57;;
60292;SDS011;52402;52.670;6.750;2023-02-28T17:11:44;9.55;;;7.38;;
60292;SDS011;52402;52.670;6.750;2023-02-28T17:14:11;8.30;;;7.30;;
60292;SDS011;52402;52.670;6.750;2023-02-28T17:16:37;9.93;;;7.68;;
60292;SDS011;52402;52.670;6.750;2023-02-28T17:21:36;11.95;;;7.40;;
60292;SDS011;52402;52.670;6.750;2023-02-28T17:24:02;11.65;;;8.02;;
60292;SDS011;52402;52.670;6.750;2023-02-28T17:26:28;10.88;;;8.20;;
60292;SDS011;52402;52.670;6.750;2023-02-28T17:28:55;9.90;;;7.35;;
60292;SDS011;52402;52.670;6.750;2023-02-28T17:31:23;11.60;;;8.40;;
60292;SDS011;52402;52.670;6.750;2023-02-28T17:33:50;13.60;;;8.60;;
60292;SDS011;52402;52.670;6.750;2023-02-28T17:36:17;11.77;;;8.50;;